MET6167 - London Heathrow to Los Angeles

Boeing 747-400
G-FLEL - Fly UK
10 hrs 20 mins
4735 nm
Fly UK Codeshare - Daily

Departure

Departing from
London Heathrow (LHR)
Departure gate
Terminal 3
Scheduled Departure
GMT 2350
Local 2350
METAR EGLL 221350Z AUTO VRB02KT 7000 NCD 06/01 Q1027 NOSIG
TAF TAF EGLL 221058Z 2212/2318 VRB03KT 6000 FEW025 TEMPO 2212/2215 4800 HZ PROB30 TEMPO 2214/2217 9999 BECMG 2217/2220 4500 BR PROB30 2300/2302 0500 FZFG BKN000 PROB40 2302/2312 0200 FZFG VV/// PROB30 TEMPO 2312/2318 0500 FG BKN001
  • No charts available

Arrival

Arriving at
Los Angeles (LAX)
Arrival gate
Scheduled Arrival
GMT 1010
Local 0210
METAR KLAX 221353Z 09010KT 7SM RA BKN025 OVC060 11/09 A3008 RMK AO2 SLP185 P0004 T01060089 $
TAF KLAX 221134Z 2212/2318 11007KT P6SM VCSH SCT025 OVC080 FM221300 11012KT P6SM -SHRA BKN025 OVC040 FM221500 12015G25KT 5SM -RA BR BKN012 OVC025 FM222000 15020G30KT 1SM +RA BR BKN007 OVC012 FM230100 21015G25KT 4SM -RA BKN012 OVC025 FM230300 23025G35KT 6SM -R

Route Map

Planning Resources

WOBUN2F DTY UB3 WAL UL975 DUB UN560 ERNAN UN550 NIBOG RUDGA N552C YFB N554C YYL J540 MLP J537 REO J7 FMG J5 TTE ZIGGY4
EGLL WOBU3F.WELIN WELIN UT420 TNT UL28 RODOL UP6 DIMLI UN570 GINGA UN572 GOMUP LAKES N424E MCKEE N434C SSM V316 SAW V341 IMT V78 EAU V26 WULEP V456 MKT V250 ONL J114 SNY J84 FROGS J100 BCE J60 BLD J107 HEC ZIGGY4.HEC KONT
WOBUN3F WOBUN DCT WELIN UT420 TNT UN57 POL UN601 NEVIS UP24 NINEX/M080F360 UP59 BALIX DCT 6015N DCT 6120N/M080F380 DCT 6230N DCT 6240N DCT 6150N DCT 5960N DCT KLIPS/N0464F380 SCAL ELVEL DCT 4994N DCT KP12C DCT RAP DCT KD72U DCT RIFMN/N0460F400 J196 BCE J60 HEC ZIGGY4
WOBU3F DTY SAPCO UN57 TNT UL28 PENIL UL10 BEL UN570 GINGA GOMUP 5920N 6130N 6240N 6250N 6160N MIBNO RODBO SEMTO YVP CHARN ELVEL VBI HML DPR J107 OCS J202 FFU J9 DAG ZIGGY4
WOBUN DCT WELIN UT420 TNT UN57 POL UN601 MARGO UN590 GOW/N0467F340 UN590 SUPIT UP58 ETSOM/M088F360 UP58 ERAKA 6220N 6430N 6540N 6550N 6460N KAGLY TEFFO SCAH PIKMO/N0473F360 SCAH KALLU/N0481F380 SCAH YWG DIK KU06W CZI OCS J107 OVETO HEC ZIGGY4
Route:
OFP Layout:
Units:
Detailed Navlog:
ETOPS Planning:
Plan Stepclimbs:
Runway Analysis:
Include NOTAMS:
FIR NOTAMS:
Flight Maps:

Return Flights

MET1
Boeing 777-300ER
0230 GMT
MET6168 (Operated by Fly UK)
Boeing 747-400
1115 GMT

Popularity

Hub Current Bids PiReps this month Total PiReps
KMCI 0 0 6
KLAX 0 0 3
KBOS 0 0 0